sensor_id;sensor_type;location;lat;lon;timestamp;pressure;altitude;pressure_sealevel;temperature;humidity
37848;BME280;23688;33.130;-117.188;2024-01-07T00:02:07;99752.16;;;15.72;50.65
37848;BME280;23688;33.130;-117.188;2024-01-07T00:04:33;99756.28;;;15.29;52.05
37848;BME280;23688;33.130;-117.188;2024-01-07T00:07:00;99758.47;;;15.14;54.10
37848;BME280;23688;33.130;-117.188;2024-01-07T00:09:27;99766.13;;;15.39;54.39
37848;BME280;23688;33.130;-117.188;2024-01-07T00:11:54;99761.72;;;15.37;57.58
37848;BME280;23688;33.130;-117.188;2024-01-07T00:14:21;99753.97;;;15.08;61.79
37848;BME280;23688;33.130;-117.188;2024-01-07T00:16:47;99756.09;;;15.22;62.20
37848;BME280;23688;33.130;-117.188;2024-01-07T00:19:14;99755.09;;;15.18;64.06
37848;BME280;23688;33.130;-117.188;2024-01-07T00:21:40;99760.75;;;15.02;64.33
37848;BME280;23688;33.130;-117.188;2024-01-07T00:24:06;99744.44;;;14.79;66.71
37848;BME280;23688;33.130;-117.188;2024-01-07T00:26:33;99748.78;;;14.78;66.63
37848;BME280;23688;33.130;-117.188;2024-01-07T00:29:00;99754.16;;;14.84;66.72
37848;BME280;23688;33.130;-117.188;2024-01-07T00:31:26;99722.84;;;14.86;65.43
37848;BME280;23688;33.130;-117.188;2024-01-07T00:33:53;99747.25;;;15.18;63.47
37848;BME280;23688;33.130;-117.188;2024-01-07T00:36:20;99759.94;;;15.04;62.47
37848;BME280;23688;33.130;-117.188;2024-01-07T00:38:47;99745.97;;;14.72;64.83
37848;BME280;23688;33.130;-117.188;2024-01-07T00:41:13;99726.06;;;14.75;64.50
37848;BME280;23688;33.130;-117.188;2024-01-07T00:43:41;99750.41;;;15.06;63.67
37848;BME280;23688;33.130;-117.188;2024-01-07T00:46:07;99745.50;;;15.17;63.41
37848;BME280;23688;33.130;-117.188;2024-01-07T00:48:33;99746.31;;;15.16;63.03
37848;BME280;23688;33.130;-117.188;2024-01-07T00:51:00;99741.09;;;15.16;63.30
37848;BME280;23688;33.130;-117.188;2024-01-07T00:53:27;99744.38;;;15.07;63.75
37848;BME280;23688;33.130;-117.188;2024-01-07T00:55:53;99742.56;;;15.05;65.01
37848;BME280;23688;33.130;-117.188;2024-01-07T00:58:19;99731.28;;;15.07;65.52
37848;BME280;23688;33.130;-117.188;2024-01-07T01:00:46;99744.56;;;15.15;65.81
37848;BME280;23688;33.130;-117.188;2024-01-07T01:03:13;99733.94;;;15.09;65.95
37848;BME280;23688;33.130;-117.188;2024-01-07T01:05:41;99723.47;;;15.09;66.07
37848;BME280;23688;33.130;-117.188;2024-01-07T01:08:10;99715.41;;;15.01;65.63
37848;BME280;23688;33.130;-117.188;2024-01-07T01:10:37;99726.69;;;14.98;65.71
37848;BME280;23688;33.130;-117.188;2024-01-07T01:13:04;99711.78;;;14.96;65.18
37848;BME280;23688;33.130;-117.188;2024-01-07T01:15:30;99696.31;;;14.70;65.79
37848;BME280;23688;33.130;-117.188;2024-01-07T01:17:58;99709.47;;;14.75;65.60
37848;BME280;23688;33.130;-117.188;2024-01-07T01:20:24;99688.78;;;14.52;65.49
37848;BME280;23688;33.130;-117.188;2024-01-07T01:22:52;99708.16;;;14.59;65.53
37848;BME280;23688;33.130;-117.188;2024-01-07T01:25:19;99706.00;;;14.46;66.23
37848;BME280;23688;33.130;-117.188;2024-01-07T01:27:48;99691.69;;;14.33;66.85
37848;BME280;23688;33.130;-117.188;2024-01-07T01:30:15;99688.06;;;14.28;67.73
37848;BME280;23688;33.130;-117.188;2024-01-07T01:32:42;99680.88;;;14.21;69.05
37848;BME280;23688;33.130;-117.188;2024-01-07T01:35:09;99677.97;;;14.10;70.64
37848;BME280;23688;33.130;-117.188;2024-01-07T01:37:37;99679.44;;;14.02;72.07
37848;BME280;23688;33.130;-117.188;2024-01-07T01:40:04;99655.69;;;13.93;72.99
37848;BME280;23688;33.130;-117.188;2024-01-07T01:42:31;99655.72;;;13.94;73.60
37848;BME280;23688;33.130;-117.188;2024-01-07T01:44:57;99659.34;;;13.99;74.20
37848;BME280;23688;33.130;-117.188;2024-01-07T01:47:31;99664.50;;;13.96;75.46
37848;BME280;23688;33.130;-117.188;2024-01-07T01:49:58;99660.94;;;13.94;78.12
37848;BME280;23688;33.130;-117.188;2024-01-07T01:52:24;99650.97;;;13.81;82.08
37848;BME280;23688;33.130;-117.188;2024-01-07T01:54:51;99648.09;;;13.72;83.56
37848;BME280;23688;33.130;-117.188;2024-01-07T01:57:20;99656.75;;;13.70;84.67
37848;BME280;23688;33.130;-117.188;2024-01-07T01:59:50;99654.59;;;13.57;86.12
37848;BME280;23688;33.130;-117.188;2024-01-07T02:02:17;99649.06;;;13.48;89.58
37848;BME280;23688;33.130;-117.188;2024-01-07T02:04:43;99655.06;;;13.45;91.73
37848;BME280;23688;33.130;-117.188;2024-01-07T02:07:10;99648.97;;;13.45;92.58
37848;BME280;23688;33.130;-117.188;2024-01-07T02:09:36;99646.03;;;13.34;95.01
37848;BME280;23688;33.130;-117.188;2024-01-07T02:12:06;99664.84;;;13.51;95.66
37848;BME280;23688;33.130;-117.188;2024-01-07T02:14:38;99667.31;;;13.48;96.97
37848;BME280;23688;33.130;-117.188;2024-01-07T02:17:05;99666.38;;;13.46;97.47
37848;BME280;23688;33.130;-117.188;2024-01-07T02:19:34;99650.75;;;13.46;98.95
37848;BME280;23688;33.130;-117.188;2024-01-07T02:22:00;99661.16;;;13.46;98.94
37848;BME280;23688;33.130;-117.188;2024-01-07T02:24:27;99670.84;;;13.48;99.92
37848;BME280;23688;33.130;-117.188;2024-01-07T02:26:53;99666.38;;;13.46;100.00
37848;BME280;23688;33.130;-117.188;2024-01-07T02:29:19;99651.88;;;13.54;100.00
37848;BME280;23688;33.130;-117.188;2024-01-07T02:31:45;99646.38;;;13.45;100.00
37848;BME280;23688;33.130;-117.188;2024-01-07T02:34:12;99648.97;;;13.45;100.00
37848;BME280;23688;33.130;-117.188;2024-01-07T02:36:38;99650.84;;;13.49;100.00
37848;BME280;23688;33.130;-117.188;2024-01-07T02:39:05;99650.06;;;13.52;100.00
37848;BME280;23688;33.130;-117.188;2024-01-07T02:41:31;99648.09;;;13.44;100.00
37848;BME280;23688;33.130;-117.188;2024-01-07T02:43:57;99642.88;;;13.44;100.00
37848;BME280;23688;33.130;-117.188;2024-01-07T02:46:24;99653.34;;;13.46;100.00
37848;BME280;23688;33.130;-117.188;2024-01-07T02:48:50;99646.69;;;13.28;100.00
37848;BME280;23688;33.130;-117.188;2024-01-07T02:51:17;99637.13;;;13.27;100.00
37848;BME280;23688;33.130;-117.188;2024-01-07T02:53:43;99646.13;;;13.37;100.00
37848;BME280;23688;33.130;-117.188;2024-01-07T02:56:09;99652.94;;;13.34;100.00
37848;BME280;23688;33.130;-117.188;2024-01-07T02:58:36;99646.69;;;13.28;100.00
37848;BME280;23688;33.130;-117.188;2024-01-07T03:01:08;99668.66;;;13.35;100.00
37848;BME280;23688;33.130;-117.188;2024-01-07T03:03:35;99659.16;;;13.37;100.00
37848;BME280;23688;33.130;-117.188;2024-01-07T03:06:01;99650.34;;;13.34;100.00
37848;BME280;23688;33.130;-117.188;2024-01-07T03:08:28;99638.00;;;13.28;100.00
37848;BME280;23688;33.130;-117.188;2024-01-07T03:10:56;99639.97;;;13.10;100.00
37848;BME280;23688;33.130;-117.188;2024-01-07T03:13:22;99641.22;;;12.95;100.00
37848;BME280;23688;33.130;-117.188;2024-01-07T03:15:49;99646.19;;;12.88;100.00
37848;BME280;23688;33.130;-117.188;2024-01-07T03:18:15;99650.13;;;13.02;100.00
37848;BME280;23688;33.130;-117.188;2024-01-07T03:20:42;99652.94;;;13.08;100.00
37848;BME280;23688;33.130;-117.188;2024-01-07T03:23:09;99659.09;;;13.10;100.00
37848;BME280;23688;33.130;-117.188;2024-01-07T03:25:35;99658.84;;;13.02;100.00
37848;BME280;23688;33.130;-117.188;2024-01-07T03:28:01;99668.25;;;12.97;100.00
37848;BME280;23688;33.130;-117.188;2024-01-07T03:30:28;99662.88;;;12.93;100.00
37848;BME280;23688;33.130;-117.188;2024-01-07T03:32:54;99663.75;;;12.93;100.00
37848;BME280;23688;33.130;-117.188;2024-01-07T03:35:20;99661.16;;;12.95;100.00
37848;BME280;23688;33.130;-117.188;2024-01-07T03:37:50;99651.78;;;12.74;100.00
37848;BME280;23688;33.130;-117.188;2024-01-07T03:40:16;99654.81;;;12.87;100.00
37848;BME280;23688;33.130;-117.188;2024-01-07T03:42:42;99654.50;;;12.77;100.00
37848;BME280;23688;33.130;-117.188;2024-01-07T03:45:09;99647.69;;;12.81;100.00
37848;BME280;23688;33.130;-117.188;2024-01-07T03:47:35;99649.13;;;12.73;100.00
37848;BME280;23688;33.130;-117.188;2024-01-07T03:50:02;99635.06;;;12.68;100.00
37848;BME280;23688;33.130;-117.188;2024-01-07T03:52:28;99643.34;;;12.81;100.00
37848;BME280;23688;33.130;-117.188;2024-01-07T03:54:55;99633.03;;;12.84;100.00
37848;BME280;23688;33.130;-117.188;2024-01-07T03:57:23;99650.63;;;12.90;100.00
37848;BME280;23688;33.130;-117.188;2024-01-07T03:59:49;99637.81;;;12.72;100.00
37848;BME280;23688;33.130;-117.188;2024-01-07T04:02:15;99640.84;;;12.59;100.00
37848;BME280;23688;33.130;-117.188;2024-01-07T04:04:42;99662.72;;;12.64;100.00
37848;BME280;23688;33.130;-117.188;2024-01-07T04:07:09;99659.00;;;12.57;100.00
37848;BME280;23688;33.130;-117.188;2024-01-07T04:09:35;99665.78;;;12.52;100.00
37848;BME280;23688;33.130;-117.188;2024-01-07T04:12:02;99657.44;;;12.38;100.00
37848;BME280;23688;33.130;-117.188;2024-01-07T04:14:29;99658.47;;;12.42;100.00
37848;BME280;23688;33.130;-117.188;2024-01-07T04:16:58;99664.19;;;12.56;100.00
37848;BME280;23688;33.130;-117.188;2024-01-07T04:19:24;99653.13;;;12.63;100.00
37848;BME280;23688;33.130;-117.188;2024-01-07T04:21:50;99632.50;;;12.69;100.00
37848;BME280;23688;33.130;-117.188;2024-01-07T04:24:16;99640.84;;;12.84;100.00
37848;BME280;23688;33.130;-117.188;2024-01-07T04:26:43;99639.34;;;12.91;100.00
37848;BME280;23688;33.130;-117.188;2024-01-07T04:29:10;99634.59;;;12.79;100.00
37848;BME280;23688;33.130;-117.188;2024-01-07T04:31:38;99635.28;;;12.74;100.00
37848;BME280;23688;33.130;-117.188;2024-01-07T04:34:04;99626.84;;;12.81;100.00
37848;BME280;23688;33.130;-117.188;2024-01-07T04:36:30;99648.72;;;12.86;100.00
37848;BME280;23688;33.130;-117.188;2024-01-07T04:38:57;99643.72;;;12.92;100.00
37848;BME280;23688;33.130;-117.188;2024-01-07T04:41:23;99617.41;;;12.84;100.00
37848;BME280;23688;33.130;-117.188;2024-01-07T04:43:50;99634.38;;;12.99;100.00
37848;BME280;23688;33.130;-117.188;2024-01-07T04:46:17;99635.19;;;12.96;100.00
37848;BME280;23688;33.130;-117.188;2024-01-07T04:48:44;99632.41;;;12.92;100.00
37848;BME280;23688;33.130;-117.188;2024-01-07T04:51:10;99619.38;;;12.92;100.00
37848;BME280;23688;33.130;-117.188;2024-01-07T04:53:36;99628.91;;;12.91;100.00
37848;BME280;23688;33.130;-117.188;2024-01-07T04:56:03;99617.53;;;12.88;100.00
37848;BME280;23688;33.130;-117.188;2024-01-07T04:58:29;99627.34;;;12.96;100.00
37848;BME280;23688;33.130;-117.188;2024-01-07T05:00:58;99622.25;;;12.99;100.00
37848;BME280;23688;33.130;-117.188;2024-01-07T05:03:25;99627.44;;;12.99;100.00
37848;BME280;23688;33.130;-117.188;2024-01-07T05:05:51;99619.84;;;13.05;100.00
37848;BME280;23688;33.130;-117.188;2024-01-07T05:08:18;99631.09;;;13.04;100.00
37848;BME280;23688;33.130;-117.188;2024-01-07T05:10:44;99624.19;;;13.05;100.00
37848;BME280;23688;33.130;-117.188;2024-01-07T05:13:11;99621.97;;;12.92;100.00
37848;BME280;23688;33.130;-117.188;2024-01-07T05:15:37;99624.69;;;12.95;100.00
37848;BME280;23688;33.130;-117.188;2024-01-07T05:18:07;99610.00;;;12.97;100.00
37848;BME280;23688;33.130;-117.188;2024-01-07T05:20:35;99604.69;;;12.94;100.00
37848;BME280;23688;33.130;-117.188;2024-01-07T05:23:01;99597.47;;;12.85;100.00
37848;BME280;23688;33.130;-117.188;2024-01-07T05:25:29;99605.56;;;12.94;100.00
37848;BME280;23688;33.130;-117.188;2024-01-07T05:27:55;99601.13;;;12.92;100.00
37848;BME280;23688;33.130;-117.188;2024-01-07T05:30:22;99586.72;;;12.76;100.00
37848;BME280;23688;33.130;-117.188;2024-01-07T05:32:48;99590.69;;;12.90;100.00
37848;BME280;23688;33.130;-117.188;2024-01-07T05:35:15;99583.91;;;12.95;100.00
37848;BME280;23688;33.130;-117.188;2024-01-07T05:37:41;99589.75;;;12.88;100.00
37848;BME280;23688;33.130;-117.188;2024-01-07T05:40:08;99592.69;;;12.99;100.00
37848;BME280;23688;33.130;-117.188;2024-01-07T05:42:34;99586.66;;;13.00;100.00
37848;BME280;23688;33.130;-117.188;2024-01-07T05:45:01;99583.44;;;13.09;100.00
37848;BME280;23688;33.130;-117.188;2024-01-07T05:47:28;99570.13;;;12.99;100.00
37848;BME280;23688;33.130;-117.188;2024-01-07T05:49:56;99577.16;;;13.02;100.00
37848;BME280;23688;33.130;-117.188;2024-01-07T05:52:22;99577.84;;;12.96;100.00
37848;BME280;23688;33.130;-117.188;2024-01-07T05:54:49;99558.41;;;12.87;100.00
37848;BME280;23688;33.130;-117.188;2024-01-07T05:57:15;99583.38;;;13.05;100.00
37848;BME280;23688;33.130;-117.188;2024-01-07T05:59:43;99575.00;;;12.89;100.00
37848;BME280;23688;33.130;-117.188;2024-01-07T06:02:10;99568.44;;;13.01;100.00
37848;BME280;23688;33.130;-117.188;2024-01-07T06:04:38;99555.56;;;13.06;100.00
37848;BME280;23688;33.130;-117.188;2024-01-07T06:07:04;99545.69;;;12.96;100.00
37848;BME280;23688;33.130;-117.188;2024-01-07T06:09:31;99542.47;;;13.04;100.00
37848;BME280;23688;33.130;-117.188;2024-01-07T06:11:57;99540.88;;;13.08;100.00
37848;BME280;23688;33.130;-117.188;2024-01-07T06:14:24;99544.81;;;13.22;100.00
37848;BME280;23688;33.130;-117.188;2024-01-07T06:16:50;99517.88;;;13.23;100.00
37848;BME280;23688;33.130;-117.188;2024-01-07T06:19:18;99519.22;;;13.38;100.00
37848;BME280;23688;33.130;-117.188;2024-01-07T06:21:45;99512.44;;;13.43;100.00
37848;BME280;23688;33.130;-117.188;2024-01-07T06:24:11;99493.16;;;13.38;100.00
37848;BME280;23688;33.130;-117.188;2024-01-07T06:26:38;99487.88;;;13.36;100.00
37848;BME280;23688;33.130;-117.188;2024-01-07T06:29:04;99491.41;;;13.37;100.00
37848;BME280;23688;33.130;-117.188;2024-01-07T06:31:30;99495.69;;;13.35;100.00
37848;BME280;23688;33.130;-117.188;2024-01-07T06:33:57;99486.97;;;13.34;100.00
37848;BME280;23688;33.130;-117.188;2024-01-07T06:36:24;99499.31;;;13.40;100.00
37848;BME280;23688;33.130;-117.188;2024-01-07T06:38:51;99505.38;;;13.39;100.00
37848;BME280;23688;33.130;-117.188;2024-01-07T06:41:17;99507.06;;;13.38;100.00
37848;BME280;23688;33.130;-117.188;2024-01-07T06:43:44;99508.66;;;13.33;100.00
37848;BME280;23688;33.130;-117.188;2024-01-07T06:46:10;99507.84;;;13.36;100.00
37848;BME280;23688;33.130;-117.188;2024-01-07T06:48:36;99483.38;;;13.31;100.00
37848;BME280;23688;33.130;-117.188;2024-01-07T06:51:03;99496.09;;;13.21;100.00
37848;BME280;23688;33.130;-117.188;2024-01-07T06:53:29;99482.25;;;13.24;100.00
37848;BME280;23688;33.130;-117.188;2024-01-07T06:55:55;99466.00;;;13.31;100.00
37848;BME280;23688;33.130;-117.188;2024-01-07T06:58:22;99473.31;;;13.43;100.00
37848;BME280;23688;33.130;-117.188;2024-01-07T07:00:49;99474.91;;;13.38;100.00
37848;BME280;23688;33.130;-117.188;2024-01-07T07:03:16;99462.44;;;13.27;100.00
37848;BME280;23688;33.130;-117.188;2024-01-07T07:05:42;99462.50;;;13.29;100.00
37848;BME280;23688;33.130;-117.188;2024-01-07T07:08:09;99457.31;;;13.31;100.00
37848;BME280;23688;33.130;-117.188;2024-01-07T07:10:35;99459.81;;;13.27;100.00
37848;BME280;23688;33.130;-117.188;2024-01-07T07:13:01;99455.94;;;13.15;100.00
37848;BME280;23688;33.130;-117.188;2024-01-07T07:15:28;99461.75;;;13.06;100.00
37848;BME280;23688;33.130;-117.188;2024-01-07T07:17:55;99458.50;;;13.13;100.00
37848;BME280;23688;33.130;-117.188;2024-01-07T07:20:22;99455.31;;;13.23;100.00
37848;BME280;23688;33.130;-117.188;2024-01-07T07:22:48;99444.00;;;13.23;100.00
37848;BME280;23688;33.130;-117.188;2024-01-07T07:25:14;99450.22;;;12.99;100.00
37848;BME280;23688;33.130;-117.188;2024-01-07T07:27:41;99430.38;;;13.03;100.00
37848;BME280;23688;33.130;-117.188;2024-01-07T07:30:07;99446.97;;;13.05;100.00
37848;BME280;23688;33.130;-117.188;2024-01-07T07:32:34;99440.13;;;12.81;100.00
37848;BME280;23688;33.130;-117.188;2024-01-07T07:35:03;99433.25;;;12.83;100.00
37848;BME280;23688;33.130;-117.188;2024-01-07T07:37:32;99440.34;;;12.88;100.00
37848;BME280;23688;33.130;-117.188;2024-01-07T07:39:58;99430.22;;;12.70;100.00
37848;BME280;23688;33.130;-117.188;2024-01-07T07:42:25;99427.75;;;12.74;100.00
37848;BME280;23688;33.130;-117.188;2024-01-07T07:44:51;99416.78;;;12.57;100.00
37848;BME280;23688;33.130;-117.188;2024-01-07T07:47:18;99425.47;;;12.56;100.00
37848;BME280;23688;33.130;-117.188;2024-01-07T07:49:44;99411.16;;;12.71;100.00
37848;BME280;23688;33.130;-117.188;2024-01-07T07:52:11;99413.56;;;12.64;100.00
37848;BME280;23688;33.130;-117.188;2024-01-07T07:54:40;99408.16;;;12.58;100.00
37848;BME280;23688;33.130;-117.188;2024-01-07T07:57:06;99396.91;;;12.59;100.00
37848;BME280;23688;33.130;-117.188;2024-01-07T07:59:32;99378.13;;;12.42;100.00
37848;BME280;23688;33.130;-117.188;2024-01-07T08:01:59;99366.16;;;12.48;100.00
37848;BME280;23688;33.130;-117.188;2024-01-07T08:04:25;99389.53;;;12.73;100.00
37848;BME280;23688;33.130;-117.188;2024-01-07T08:06:52;99381.09;;;12.82;100.00
37848;BME280;23688;33.130;-117.188;2024-01-07T08:09:19;99374.03;;;12.78;100.00
37848;BME280;23688;33.130;-117.188;2024-01-07T08:11:45;99375.84;;;12.80;100.00
37848;BME280;23688;33.130;-117.188;2024-01-07T08:14:12;99365.06;;;12.68;100.00
37848;BME280;23688;33.130;-117.188;2024-01-07T08:16:38;99358.03;;;12.66;100.00
37848;BME280;23688;33.130;-117.188;2024-01-07T08:19:04;99367.03;;;12.75;100.00
37848;BME280;23688;33.130;-117.188;2024-01-07T08:21:31;99359.72;;;12.63;100.00
37848;BME280;23688;33.130;-117.188;2024-01-07T08:23:57;99340.78;;;12.69;100.00
37848;BME280;23688;33.130;-117.188;2024-01-07T08:26:23;99352.94;;;12.70;100.00
37848;BME280;23688;33.130;-117.188;2024-01-07T08:28:50;99358.72;;;12.60;100.00
37848;BME280;23688;33.130;-117.188;2024-01-07T08:31:16;99349.44;;;12.41;100.00
37848;BME280;23688;33.130;-117.188;2024-01-07T08:33:42;99338.69;;;12.30;100.00
37848;BME280;23688;33.130;-117.188;2024-01-07T08:36:09;99326.00;;;12.12;100.00
37848;BME280;23688;33.130;-117.188;2024-01-07T08:38:35;99322.28;;;12.06;100.00
37848;BME280;23688;33.130;-117.188;2024-01-07T08:41:01;99320.63;;;12.08;100.00
37848;BME280;23688;33.130;-117.188;2024-01-07T08:43:28;99327.84;;;12.16;100.00
37848;BME280;23688;33.130;-117.188;2024-01-07T08:45:54;99328.75;;;12.17;100.00
37848;BME280;23688;33.130;-117.188;2024-01-07T08:48:20;99324.34;;;12.16;100.00
37848;BME280;23688;33.130;-117.188;2024-01-07T08:50:47;99302.25;;;12.30;100.00
37848;BME280;23688;33.130;-117.188;2024-01-07T08:53:14;99305.06;;;12.36;100.00
37848;BME280;23688;33.130;-117.188;2024-01-07T08:55:42;99310.63;;;12.21;100.00
37848;BME280;23688;33.130;-117.188;2024-01-07T08:58:08;99295.56;;;12.11;100.00
37848;BME280;23688;33.130;-117.188;2024-01-07T09:00:34;99303.84;;;11.98;100.00
37848;BME280;23688;33.130;-117.188;2024-01-07T09:03:01;99307.59;;;11.82;100.00
37848;BME280;23688;33.130;-117.188;2024-01-07T09:05:28;99317.28;;;11.86;100.00
37848;BME280;23688;33.130;-117.188;2024-01-07T09:07:54;99312.66;;;11.77;100.00
37848;BME280;23688;33.130;-117.188;2024-01-07T09:10:21;99304.75;;;11.74;100.00
37848;BME280;23688;33.130;-117.188;2024-01-07T09:12:48;99302.94;;;11.72;100.00
37848;BME280;23688;33.130;-117.188;2024-01-07T09:15:18;99292.47;;;11.70;100.00
37848;BME280;23688;33.130;-117.188;2024-01-07T09:17:44;99298.56;;;11.71;100.00
37848;BME280;23688;33.130;-117.188;2024-01-07T09:20:11;99291.50;;;11.67;100.00
37848;BME280;23688;33.130;-117.188;2024-01-07T09:22:37;99288.97;;;11.68;100.00
37848;BME280;23688;33.130;-117.188;2024-01-07T09:25:04;99287.25;;;11.69;100.00
37848;BME280;23688;33.130;-117.188;2024-01-07T09:27:32;99280.25;;;11.68;100.00
37848;BME280;23688;33.130;-117.188;2024-01-07T09:29:58;99279.97;;;11.59;100.00
37848;BME280;23688;33.130;-117.188;2024-01-07T09:32:25;99279.81;;;11.54;100.00
37848;BME280;23688;33.130;-117.188;2024-01-07T09:34:51;99278.41;;;11.64;100.00
37848;BME280;23688;33.130;-117.188;2024-01-07T09:37:19;99260.66;;;11.52;100.00
37848;BME280;23688;33.130;-117.188;2024-01-07T09:39:45;99274.75;;;11.59;100.00
37848;BME280;23688;33.130;-117.188;2024-01-07T09:42:18;99259.03;;;11.55;100.00
37848;BME280;23688;33.130;-117.188;2024-01-07T09:44:45;99257.34;;;11.56;100.00
37848;BME280;23688;33.130;-117.188;2024-01-07T09:47:13;99261.84;;;11.62;100.00
37848;BME280;23688;33.130;-117.188;2024-01-07T09:49:40;99235.69;;;11.57;100.00
37848;BME280;23688;33.130;-117.188;2024-01-07T09:52:09;99245.56;;;11.67;100.00
37848;BME280;23688;33.130;-117.188;2024-01-07T09:54:39;99246.56;;;11.71;100.00
37848;BME280;23688;33.130;-117.188;2024-01-07T09:57:07;99244.16;;;11.77;100.00
37848;BME280;23688;33.130;-117.188;2024-01-07T09:59:35;99245.88;;;11.76;100.00
37848;BME280;23688;33.130;-117.188;2024-01-07T10:02:03;99237.34;;;11.81;100.00
37848;BME280;23688;33.130;-117.188;2024-01-07T10:04:31;99223.41;;;11.78;100.00
37848;BME280;23688;33.130;-117.188;2024-01-07T10:06:57;99237.28;;;11.79;100.00
37848;BME280;23688;33.130;-117.188;2024-01-07T10:09:28;99223.66;;;11.61;100.00
37848;BME280;23688;33.130;-117.188;2024-01-07T10:11:55;99217.00;;;11.42;100.00
37848;BME280;23688;33.130;-117.188;2024-01-07T10:14:21;99201.25;;;11.37;100.00
37848;BME280;23688;33.130;-117.188;2024-01-07T10:16:53;99205.56;;;11.37;100.00
37848;BME280;23688;33.130;-117.188;2024-01-07T10:19:21;99192.59;;;11.37;100.00
37848;BME280;23688;33.130;-117.188;2024-01-07T10:21:59;99189.19;;;11.39;100.00
37848;BME280;23688;33.130;-117.188;2024-01-07T10:24:26;99174.63;;;11.19;100.00
37848;BME280;23688;33.130;-117.188;2024-01-07T10:26:57;99167.47;;;11.11;100.00
37848;BME280;23688;33.130;-117.188;2024-01-07T10:29:24;99174.31;;;11.09;100.00
37848;BME280;23688;33.130;-117.188;2024-01-07T10:31:50;99158.44;;;11.00;100.00
37848;BME280;23688;33.130;-117.188;2024-01-07T10:34:17;99162.78;;;11.01;100.00
37848;BME280;23688;33.130;-117.188;2024-01-07T10:36:45;99168.72;;;10.97;100.00
37848;BME280;23688;33.130;-117.188;2024-01-07T10:39:12;99146.69;;;10.86;100.00
37848;BME280;23688;33.130;-117.188;2024-01-07T10:41:42;99156.84;;;10.80;100.00
37848;BME280;23688;33.130;-117.188;2024-01-07T10:44:08;99165.31;;;10.74;100.00
37848;BME280;23688;33.130;-117.188;2024-01-07T10:46:37;99179.75;;;10.66;100.00
37848;BME280;23688;33.130;-117.188;2024-01-07T10:49:18;99161.28;;;10.58;100.00
37848;BME280;23688;33.130;-117.188;2024-01-07T10:51:46;99185.13;;;10.46;100.00
37848;BME280;23688;33.130;-117.188;2024-01-07T10:54:22;99190.16;;;10.43;100.00
37848;BME280;23688;33.130;-117.188;2024-01-07T10:56:50;99176.13;;;10.38;100.00
37848;BME280;23688;33.130;-117.188;2024-01-07T10:59:20;99180.03;;;10.49;100.00
37848;BME280;23688;33.130;-117.188;2024-01-07T11:01:47;99180.38;;;10.59;100.00
37848;BME280;23688;33.130;-117.188;2024-01-07T11:04:23;99167.38;;;10.59;100.00
37848;BME280;23688;33.130;-117.188;2024-01-07T11:07:46;99180.66;;;10.68;100.00
37848;BME280;23688;33.130;-117.188;2024-01-07T11:10:12;99167.66;;;10.66;100.00
37848;BME280;23688;33.130;-117.188;2024-01-07T11:12:37;99158.16;;;10.67;100.00
37848;BME280;23688;33.130;-117.188;2024-01-07T11:15:04;99161.78;;;10.72;100.00
37848;BME280;23688;33.130;-117.188;2024-01-07T11:20:06;99138.16;;;10.64;100.00
37848;BME280;23688;33.130;-117.188;2024-01-07T11:22:35;99141.63;;;10.65;100.00
37848;BME280;23688;33.130;-117.188;2024-01-07T11:25:02;99139.59;;;10.56;100.00
37848;BME280;23688;33.130;-117.188;2024-01-07T11:27:30;99119.47;;;10.50;100.00
37848;BME280;23688;33.130;-117.188;2024-01-07T11:30:07;99135.84;;;10.48;100.00
37848;BME280;23688;33.130;-117.188;2024-01-07T11:32:44;99129.44;;;10.38;100.00
37848;BME280;23688;33.130;-117.188;2024-01-07T11:35:15;99133.88;;;10.18;100.00
37848;BME280;23688;33.130;-117.188;2024-01-07T11:37:41;99131.00;;;10.11;100.00
37848;BME280;23688;33.130;-117.188;2024-01-07T11:40:09;99137.91;;;10.10;100.00
37848;BME280;23688;33.130;-117.188;2024-01-07T11:42:37;99112.31;;;9.97;100.00
37848;BME280;23688;33.130;-117.188;2024-01-07T11:45:04;99130.75;;;10.04;100.00
37848;BME280;23688;33.130;-117.188;2024-01-07T11:47:32;99131.75;;;10.08;100.00
37848;BME280;23688;33.130;-117.188;2024-01-07T11:49:59;99129.97;;;10.07;100.00
37848;BME280;23688;33.130;-117.188;2024-01-07T11:52:25;99139.75;;;10.14;100.00
37848;BME280;23688;33.130;-117.188;2024-01-07T11:54:52;99135.41;;;10.13;100.00
37848;BME280;23688;33.130;-117.188;2024-01-07T11:57:18;99139.75;;;10.14;100.00
37848;BME280;23688;33.130;-117.188;2024-01-07T11:59:44;99135.91;;;10.03;100.00
37848;BME280;23688;33.130;-117.188;2024-01-07T12:02:11;99148.97;;;10.06;100.00
37848;BME280;23688;33.130;-117.188;2024-01-07T12:04:39;99138.38;;;10.00;100.00
37848;BME280;23688;33.130;-117.188;2024-01-07T12:07:05;99143.56;;;10.00;100.00
37848;BME280;23688;33.130;-117.188;2024-01-07T12:09:34;99157.63;;;10.06;100.00
37848;BME280;23688;33.130;-117.188;2024-01-07T12:12:03;99155.69;;;10.01;100.00
37848;BME280;23688;33.130;-117.188;2024-01-07T12:14:33;99146.16;;;10.00;100.00
37848;BME280;23688;33.130;-117.188;2024-01-07T12:16:59;99156.06;;;10.10;100.00
37848;BME280;23688;33.130;-117.188;2024-01-07T12:19:28;99142.06;;;10.06;100.00
37848;BME280;23688;33.130;-117.188;2024-01-07T12:22:05;99149.22;;;10.12;100.00
37848;BME280;23688;33.130;-117.188;2024-01-07T12:24:32;99150.97;;;10.13;100.00
37848;BME280;23688;33.130;-117.188;2024-01-07T12:27:07;99140.66;;;10.15;100.00